createdAt,value
2022-12-27T00:01:00.782Z,101897.00
2022-12-27T00:03:41.484Z,101930.06
2022-12-27T00:09:52.221Z,101930.81
2022-12-27T00:18:41.844Z,101938.81
2022-12-27T00:28:26.937Z,101942.44
2022-12-27T00:31:29.616Z,101912.19
2022-12-27T00:34:09.253Z,101935.22
2022-12-27T00:36:44.197Z,101922.56
2022-12-27T00:42:28.982Z,101914.47
2022-12-27T00:51:50.120Z,101967.34
2022-12-27T00:54:34.175Z,101930.13
2022-12-27T01:06:34.774Z,101932.28
2022-12-27T01:09:17.355Z,101924.53
2022-12-27T01:11:55.232Z,101933.34
2022-12-27T01:14:27.667Z,101952.38
2022-12-27T01:24:05.327Z,101984.50
2022-12-27T01:35:00.178Z,101986.50
2022-12-27T01:37:35.579Z,101976.38
2022-12-27T01:40:18.076Z,101959.13
2022-12-27T01:42:58.936Z,101959.97
2022-12-27T01:48:35.622Z,101954.91
2022-12-27T01:53:58.239Z,101970.28
2022-12-27T01:56:42.647Z,101978.97
2022-12-27T01:59:21.997Z,101950.47
2022-12-27T02:01:58.169Z,101953.84
2022-12-27T02:04:49.987Z,101953.09
2022-12-27T02:07:37.792Z,101982.47
2022-12-27T02:12:49.651Z,101968.78
2022-12-27T02:15:21.591Z,101981.81
2022-12-27T02:17:58.738Z,101981.63
2022-12-27T02:20:44.265Z,101983.19
2022-12-27T02:24:02.520Z,102006.41
2022-12-27T02:27:10.699Z,101990.66
2022-12-27T02:30:03.597Z,101986.28
2022-12-27T02:33:02.502Z,102010.28
2022-12-27T02:35:54.840Z,102004.16
2022-12-27T02:38:48.976Z,101983.25
2022-12-27T02:41:38.948Z,101982.22
2022-12-27T02:51:43.808Z,101993.44
2022-12-27T03:04:52.815Z,102016.66
2022-12-27T03:11:55.564Z,102024.19
2022-12-27T03:14:59.763Z,101993.78
2022-12-27T03:17:46.135Z,101993.78
2022-12-27T03:23:53.906Z,102015.41
2022-12-27T03:26:34.845Z,102007.50
2022-12-27T03:29:36.501Z,102036.84
2022-12-27T03:32:36.633Z,102022.25
2022-12-27T03:39:00.982Z,102018.91
2022-12-27T03:44:43.415Z,102033.84
2022-12-27T03:47:40.319Z,102027.84
2022-12-27T03:50:22.825Z,102068.56
2022-12-27T03:53:15.252Z,102028.03
2022-12-27T03:58:45.704Z,102046.28
2022-12-27T04:01:29.236Z,102024.53
2022-12-27T04:04:08.117Z,102054.69
2022-12-27T04:10:33.199Z,102046.28
2022-12-27T04:16:50.427Z,102080.09
2022-12-27T04:23:03.889Z,102073.25
2022-12-27T04:25:58.295Z,102037.97
2022-12-27T04:31:55.562Z,102036.03
2022-12-27T04:34:48.590Z,102059.53
2022-12-27T04:40:22.573Z,102047.50
2022-12-27T04:43:16.533Z,102068.22
2022-12-27T04:46:09.472Z,102045.84
2022-12-27T04:49:04.783Z,102039.66
2022-12-27T04:52:13.591Z,102049.16
2022-12-27T04:55:23.858Z,102052.78
2022-12-27T04:58:00.442Z,102062.38
2022-12-27T05:01:02.804Z,102085.44
2022-12-27T05:03:37.371Z,102076.22
2022-12-27T05:06:17.775Z,102098.72
2022-12-27T05:09:11.288Z,102073.72
2022-12-27T05:12:10.940Z,102103.31
2022-12-27T05:14:41.718Z,102094.66
2022-12-27T05:17:33.544Z,102070.66
2022-12-27T05:20:37.256Z,102117.44
2022-12-27T05:26:36.476Z,102071.69
2022-12-27T05:29:18.933Z,102097.72
2022-12-27T05:35:02.833Z,102127.34
2022-12-27T05:37:42.256Z,102105.88
2022-12-27T05:40:25.584Z,102113.63
2022-12-27T05:45:48.313Z,102106.34
2022-12-27T05:51:19.633Z,102120.47
2022-12-27T05:53:51.193Z,102120.72
2022-12-27T06:02:37.850Z,102135.81
2022-12-27T06:05:29.158Z,102133.28
2022-12-27T06:10:47.400Z,102142.94
2022-12-27T06:30:01.676Z,102187.34
2022-12-27T06:36:11.443Z,102186.00
2022-12-27T06:38:47.046Z,102197.41
2022-12-27T06:50:48.071Z,102214.16
2022-12-27T06:53:43.498Z,102174.47
2022-12-27T07:12:20.185Z,102241.03
2022-12-27T07:24:47.592Z,102226.91
2022-12-27T07:34:20.384Z,102244.13
2022-12-27T07:45:34.649Z,102262.41
2022-12-27T07:48:30.131Z,102235.50
2022-12-27T07:57:09.696Z,102270.09
2022-12-27T08:02:40.084Z,102256.41
2022-12-27T08:05:21.472Z,102295.41
2022-12-27T08:08:11.072Z,102285.97
2022-12-27T08:11:11.741Z,102266.03
2022-12-27T08:27:07.431Z,102291.41
2022-12-27T08:29:49.223Z,102283.47
2022-12-27T08:32:24.569Z,102287.84
2022-12-27T08:35:25.039Z,102289.47
2022-12-27T08:38:10.140Z,102324.75
2022-12-27T08:46:49.394Z,102319.16
2022-12-27T08:49:17.191Z,102331.97
2022-12-27T08:55:06.098Z,102330.81
2022-12-27T08:57:41.379Z,102328.00
2022-12-27T09:00:17.578Z,102291.34
2022-12-27T09:05:48.958Z,102306.75
2022-12-27T09:08:26.846Z,102288.25
2022-12-27T09:11:29.158Z,102296.53
2022-12-27T09:14:08.480Z,102303.19
2022-12-27T09:16:45.868Z,102296.59
2022-12-27T09:19:31.712Z,102285.16
2022-12-27T09:22:09.264Z,102314.47
2022-12-27T09:24:36.889Z,102301.25
2022-12-27T09:27:16.544Z,102296.09
2022-12-27T09:29:48.284Z,102322.59
2022-12-27T09:32:28.413Z,102304.97
2022-12-27T09:34:59.153Z,102304.47
2022-12-27T09:37:39.304Z,102317.13
2022-12-27T09:40:13.343Z,102317.25
2022-12-27T09:43:16.218Z,102331.72
2022-12-27T09:46:03.067Z,102322.72
2022-12-27T09:48:47.992Z,102314.13
2022-12-27T09:51:22.025Z,102314.97
2022-12-27T09:54:10.369Z,102326.69
2022-12-27T09:57:18.905Z,102347.69
2022-12-27T09:59:55.974Z,102341.63
2022-12-27T10:02:37.288Z,102320.53
2022-12-27T10:05:21.288Z,102327.13
2022-12-27T10:08:11.234Z,102334.59
2022-12-27T10:10:54.111Z,102319.41
2022-12-27T10:13:22.040Z,102344.59
2022-12-27T10:16:13.387Z,102353.31
2022-12-27T10:22:41.361Z,102328.72
2022-12-27T10:25:24.213Z,102318.16
2022-12-27T10:28:16.209Z,102318.00
2022-12-27T10:30:53.329Z,102340.44
2022-12-27T10:33:26.371Z,102334.78
2022-12-27T10:36:09.087Z,102338.25
2022-12-27T10:38:53.094Z,102323.53
2022-12-27T10:41:22.990Z,102333.97
2022-12-27T10:44:09.273Z,102326.75
2022-12-27T10:46:49.283Z,102356.81
2022-12-27T10:49:28.291Z,102369.00
2022-12-27T10:52:24.079Z,102344.44
2022-12-27T10:54:54.379Z,102331.78
2022-12-27T10:57:38.205Z,102347.88
2022-12-27T11:00:28.444Z,102322.97
2022-12-27T11:03:04.893Z,102361.06
2022-12-27T11:05:50.474Z,102338.22
2022-12-27T11:08:28.169Z,102328.09
2022-12-27T11:11:34.143Z,102348.03
2022-12-27T11:14:21.339Z,102336.44
2022-12-27T11:16:58.275Z,102346.91
2022-12-27T11:19:33.930Z,102342.38
2022-12-27T11:22:13.096Z,102356.22
2022-12-27T11:28:49.165Z,102376.44
2022-12-27T11:31:29.764Z,102343.00
2022-12-27T11:34:08.413Z,102364.28
2022-12-27T11:36:41.109Z,102343.19
2022-12-27T11:39:35.296Z,102354.22
2022-12-27T11:42:08.694Z,102343.56
2022-12-27T11:44:52.675Z,102361.06
2022-12-27T11:47:30.996Z,102337.00
2022-12-27T11:50:23.203Z,102353.81
2022-12-27T11:53:11.899Z,102360.88
2022-12-27T11:56:22.649Z,102373.06
2022-12-27T11:59:45.755Z,102373.84
2022-12-27T12:02:30.965Z,102334.81
2022-12-27T12:05:14.549Z,102371.19
2022-12-27T12:07:59.283Z,102362.16
2022-12-27T12:13:54.157Z,102353.75
2022-12-27T12:16:47.312Z,102315.41
2022-12-27T12:23:31.179Z,102338.84
2022-12-27T12:26:27.568Z,102324.81
2022-12-27T12:29:29.204Z,102335.88
2022-12-27T12:32:16.878Z,102285.31
2022-12-27T12:35:17.435Z,102291.00
2022-12-27T12:38:13.111Z,102318.72
2022-12-27T12:41:30.477Z,102329.94
2022-12-27T12:44:12.146Z,102329.06
2022-12-27T12:47:08.255Z,102297.00
2022-12-27T12:49:38.869Z,102291.66
2022-12-27T12:52:51.322Z,102316.50
2022-12-27T12:55:40.258Z,102304.06
2022-12-27T12:58:31.426Z,102306.63
2022-12-27T13:01:36.474Z,102307.34
2022-12-27T13:04:28.332Z,102298.34
2022-12-27T13:07:25.915Z,102285.91
2022-12-27T13:10:48.175Z,102257.47
2022-12-27T13:13:49.426Z,102282.28
2022-12-27T13:16:46.586Z,102251.97
2022-12-27T13:23:15.724Z,102277.81
2022-12-27T13:26:43.234Z,102232.66
2022-12-27T13:29:42.455Z,102263.56
2022-12-27T13:32:37.565Z,102248.47
2022-12-27T13:35:50.176Z,102259.00
2022-12-27T13:38:58.108Z,102223.09
2022-12-27T13:41:45.977Z,102245.44
2022-12-27T13:44:53.404Z,102239.03
2022-12-27T13:47:49.361Z,102241.63
2022-12-27T13:50:49.132Z,102229.19
2022-12-27T13:53:59.279Z,102223.94
2022-12-27T13:56:58.581Z,102202.50
2022-12-27T13:59:56.021Z,102194.97
2022-12-27T14:02:48.587Z,102202.56
2022-12-27T14:05:45.314Z,102179.53
2022-12-27T14:08:49.307Z,102191.31
2022-12-27T14:11:59.687Z,102180.72
2022-12-27T14:14:36.261Z,102168.22
2022-12-27T14:17:24.484Z,102192.31
2022-12-27T14:20:43.924Z,102190.66
2022-12-27T14:37:07.411Z,102157.19
2022-12-27T14:39:58.816Z,102185.56
2022-12-27T14:42:54.106Z,102187.72
2022-12-27T14:46:07.295Z,102189.25
2022-12-27T14:59:50.181Z,102171.16
2022-12-27T15:02:55.468Z,102174.91
2022-12-27T15:05:45.401Z,102152.81
2022-12-27T15:09:05.377Z,102183.25
2022-12-27T15:12:22.893Z,102175.81
2022-12-27T15:15:10.608Z,102190.13
2022-12-27T15:18:16.343Z,102155.78
2022-12-27T15:21:11.260Z,102171.16
2022-12-27T15:27:49.440Z,102168.44
2022-12-27T15:30:41.238Z,102168.66
2022-12-27T15:33:28.213Z,102173.81
2022-12-27T15:36:03.190Z,102173.88
2022-12-27T15:38:55.554Z,102162.84
2022-12-27T15:41:56.463Z,102146.66
2022-12-27T15:45:02.393Z,102150.94
2022-12-27T15:47:50.899Z,102150.06
2022-12-27T15:50:45.198Z,102134.28
2022-12-27T15:53:21.639Z,102129.28
2022-12-27T15:56:32.321Z,102161.53
2022-12-27T15:59:40.656Z,102157.41
2022-12-27T16:02:38.511Z,102141.63
2022-12-27T16:05:33.744Z,102139.47
2022-12-27T16:08:37.268Z,102160.44
2022-12-27T16:11:19.316Z,102124.38
2022-12-27T16:14:03.646Z,102144.78
2022-12-27T16:16:32.776Z,102148.28
2022-12-27T16:25:48.394Z,102124.50
2022-12-27T16:28:35.367Z,102113.41
2022-12-27T16:31:08.002Z,102112.47
2022-12-27T16:40:34.414Z,102120.59
2022-12-27T16:43:21.936Z,102119.66
2022-12-27T16:46:09.355Z,102095.69
2022-12-27T16:48:48.562Z,102105.78
2022-12-27T16:51:42.187Z,102121.06
2022-12-27T17:00:46.176Z,102107.97
2022-12-27T17:03:28.338Z,102095.84
2022-12-27T17:09:31.134Z,102108.34
2022-12-27T17:12:24.992Z,102068.72
2022-12-27T17:15:00.398Z,102089.47
2022-12-27T17:17:37.804Z,102076.38
2022-12-27T17:23:36.340Z,102098.69
2022-12-27T17:26:23.722Z,102082.19
2022-12-27T17:29:16.520Z,102068.50
2022-12-27T17:31:51.515Z,102108.13
2022-12-27T17:34:51.362Z,102081.94
2022-12-27T17:37:35.041Z,102099.19
2022-12-27T17:40:19.998Z,102077.88
2022-12-27T17:46:39.482Z,102068.09
2022-12-27T17:49:21.333Z,102054.28
2022-12-27T17:52:07.374Z,102052.28
2022-12-27T17:54:59.475Z,102014.34
2022-12-27T17:57:52.314Z,102038.91
2022-12-27T18:00:29.496Z,102010.50
2022-12-27T18:03:00.265Z,102007.13
2022-12-27T18:05:40.683Z,102001.03
2022-12-27T18:08:25.143Z,102011.19
2022-12-27T18:11:05.449Z,102007.50
2022-12-27T18:17:09.334Z,102003.53
2022-12-27T18:19:39.669Z,101963.91
2022-12-27T18:22:31.303Z,102001.75
2022-12-27T18:25:00.003Z,101954.00
2022-12-27T18:27:38.331Z,101992.78
2022-12-27T18:30:06.156Z,101979.78
2022-12-27T18:35:28.283Z,101982.56
2022-12-27T18:38:05.224Z,101957.38
2022-12-27T18:40:53.149Z,102002.19
2022-12-27T18:43:23.144Z,101978.66
2022-12-27T18:46:07.417Z,101966.38
2022-12-27T18:48:50.741Z,101951.72
2022-12-27T18:51:18.069Z,101966.31
2022-12-27T18:53:54.492Z,101971.44
2022-12-27T18:56:32.440Z,101965.47
2022-12-27T18:59:13.395Z,101993.84
2022-12-27T19:01:43.634Z,101951.38
2022-12-27T19:04:29.421Z,101952.28
2022-12-27T19:07:08.707Z,101946.28
2022-12-27T19:16:45.874Z,101966.47
2022-12-27T19:19:56.561Z,101936.84
2022-12-27T19:22:56.039Z,101969.34
2022-12-27T19:25:38.308Z,101934.91
2022-12-27T19:28:10.102Z,101932.69
2022-12-27T19:30:48.555Z,101954.22
2022-12-27T19:33:41.568Z,101945.03
2022-12-27T19:36:18.450Z,101964.75
2022-12-27T19:38:54.563Z,101948.06
2022-12-27T19:41:21.997Z,101946.41
2022-12-27T19:44:00.620Z,101905.25
2022-12-27T19:46:37.486Z,101906.19
2022-12-27T19:49:40.143Z,101930.06
2022-12-27T19:52:02.526Z,101900.09
2022-12-27T19:54:31.069Z,101918.78
2022-12-27T19:57:08.756Z,101892.47
2022-12-27T19:59:37.926Z,101895.84
2022-12-27T20:05:12.429Z,101898.06
2022-12-27T20:07:55.167Z,101904.94
2022-12-27T20:10:45.440Z,101886.09
2022-12-27T20:13:21.665Z,101894.03
2022-12-27T20:16:04.853Z,101910.56
2022-12-27T20:18:32.124Z,101884.00
2022-12-27T20:26:55.172Z,101908.00
2022-12-27T20:32:26.514Z,101899.41
2022-12-27T20:35:02.984Z,101853.94
2022-12-27T20:37:33.574Z,101879.84
2022-12-27T20:40:07.408Z,101883.13
2022-12-27T20:42:42.125Z,101868.28
2022-12-27T20:45:19.805Z,101874.63
2022-12-27T20:47:50.117Z,101866.19
2022-12-27T20:50:24.570Z,101849.22
2022-12-27T20:52:54.948Z,101885.41
2022-12-27T20:55:31.461Z,101844.81
2022-12-27T20:58:08.364Z,101878.44
2022-12-27T21:00:41.279Z,101856.84
2022-12-27T21:03:18.801Z,101851.81
2022-12-27T21:05:48.656Z,101848.50
2022-12-27T21:11:16.245Z,101843.00
2022-12-27T21:13:57.483Z,101834.50
2022-12-27T21:16:36.607Z,101829.22
2022-12-27T21:19:13.476Z,101817.97
2022-12-27T21:21:43.605Z,101835.28
2022-12-27T21:27:00.599Z,101845.06
2022-12-27T21:29:34.494Z,101814.59
2022-12-27T21:32:04.560Z,101825.03
2022-12-27T21:41:46.350Z,101793.53
2022-12-27T21:49:41.662Z,101794.50
2022-12-27T21:52:18.533Z,101779.84
2022-12-27T21:54:46.179Z,101785.66
2022-12-27T22:03:57.585Z,101759.31
2022-12-27T22:06:37.823Z,101766.13
2022-12-27T22:09:26.536Z,101773.47
2022-12-27T22:12:16.649Z,101742.47
2022-12-27T22:14:49.604Z,101758.00
2022-12-27T22:20:05.449Z,101730.91
2022-12-27T22:22:41.074Z,101770.53
2022-12-27T22:25:10.491Z,101759.19
2022-12-27T22:31:30.854Z,101702.25
2022-12-27T22:40:45.740Z,101722.31
2022-12-27T22:43:16.633Z,101681.00
2022-12-27T22:48:33.746Z,101683.34
2022-12-27T22:57:20.678Z,101675.25
2022-12-27T22:59:54.731Z,101687.00
2022-12-27T23:02:24.248Z,101642.97
2022-12-27T23:04:57.444Z,101666.56
2022-12-27T23:10:22.343Z,101659.13
2022-12-27T23:18:54.544Z,101634.06
2022-12-27T23:21:32.833Z,101608.63
2022-12-27T23:24:08.515Z,101605.91
2022-12-27T23:29:31.449Z,101597.41
2022-12-27T23:34:59.851Z,101569.72
2022-12-27T23:37:29.803Z,101569.47
2022-12-27T23:40:06.414Z,101575.06
2022-12-27T23:42:33.610Z,101563.28
2022-12-27T23:48:48.535Z,101557.13
2022-12-27T23:51:27.617Z,101551.56
2022-12-27T23:53:57.904Z,101554.34
2022-12-27T23:59:20.618Z,101561.13
